createdAt,value
2019-04-30T00:02:05.573Z,8.73
2019-04-30T00:05:15.171Z,8.60
2019-04-30T00:08:20.843Z,8.16
2019-04-30T00:11:27.174Z,8.18
2019-04-30T00:14:38.607Z,8.23
2019-04-30T00:17:42.083Z,7.94
2019-04-30T00:20:48.457Z,7.93
2019-04-30T00:23:56.153Z,7.93
2019-04-30T00:27:02.778Z,7.83
2019-04-30T00:30:09.707Z,7.89
2019-04-30T00:33:22.231Z,7.83
2019-04-30T00:36:29.350Z,7.65
2019-04-30T00:39:32.693Z,7.44
2019-04-30T00:42:39.056Z,7.02
2019-04-30T00:45:47.564Z,7.22
2019-04-30T00:48:55.718Z,7.24
2019-04-30T00:52:02.628Z,7.06
2019-04-30T00:55:09.380Z,7.16
2019-04-30T00:58:17.711Z,7.12
2019-04-30T01:01:51.771Z,7.06
2019-04-30T01:05:05.337Z,6.86
2019-04-30T01:08:08.452Z,6.50
2019-04-30T01:11:15.455Z,6.58
2019-04-30T01:14:23.151Z,6.41
2019-04-30T01:17:30.400Z,6.33
2019-04-30T01:20:38.657Z,6.18
2019-04-30T01:23:51.928Z,5.84
2019-04-30T01:26:53.497Z,5.38
2019-04-30T01:30:00.133Z,5.21
2019-04-30T01:33:06.605Z,5.23
2019-04-30T01:36:13.440Z,5.17
2019-04-30T01:39:23.662Z,4.86
2019-04-30T01:42:28.493Z,5.17
2019-04-30T01:45:34.910Z,4.68
2019-04-30T01:48:43.716Z,4.57
2019-04-30T01:51:52.865Z,4.62
2019-04-30T01:54:58.698Z,4.74
2019-04-30T01:58:19.850Z,4.76
2019-04-30T02:01:28.594Z,4.73
2019-04-30T02:04:35.859Z,4.45
2019-04-30T02:07:42.227Z,4.55
2019-04-30T02:10:49.197Z,4.39
2019-04-30T02:13:56.686Z,4.50
2019-04-30T02:17:03.162Z,4.35
2019-04-30T02:20:10.116Z,4.71
2019-04-30T02:23:16.501Z,4.59
2019-04-30T02:26:22.915Z,4.15
2019-04-30T02:29:29.746Z,4.48
2019-04-30T02:32:36.285Z,4.77
2019-04-30T02:36:10.711Z,4.81
2019-04-30T02:39:17.131Z,4.44
2019-04-30T02:42:23.961Z,4.74
2019-04-30T02:45:31.672Z,4.23
2019-04-30T02:48:39.967Z,4.54
2019-04-30T02:51:49.738Z,4.35
2019-04-30T02:54:59.211Z,4.43
2019-04-30T02:58:04.779Z,4.01
2019-04-30T03:01:11.242Z,3.51
2019-04-30T03:04:19.669Z,3.36
2019-04-30T03:07:25.881Z,3.86
2019-04-30T03:10:32.280Z,2.87
2019-04-30T03:13:42.546Z,3.10
2019-04-30T03:16:55.932Z,3.43
2019-04-30T03:20:35.574Z,3.60
2019-04-30T03:23:39.192Z,3.99
2019-04-30T03:26:45.893Z,3.80
2019-04-30T03:29:52.750Z,3.74
2019-04-30T03:33:02.771Z,3.67
2019-04-30T03:36:11.929Z,3.69
2019-04-30T03:39:15.349Z,3.50
2019-04-30T03:42:21.718Z,3.68
2019-04-30T03:45:30.155Z,3.62
2019-04-30T03:48:36.205Z,3.65
2019-04-30T03:51:42.724Z,3.60
2019-04-30T03:54:49.547Z,3.47
2019-04-30T03:57:59.865Z,3.56
2019-04-30T04:01:21.372Z,3.44
2019-04-30T04:05:01.105Z,2.58
2019-04-30T04:08:19.720Z,3.26
2019-04-30T04:11:30.158Z,2.81
2019-04-30T04:14:39.335Z,2.63
2019-04-30T04:17:44.733Z,3.26
2019-04-30T04:21:07.016Z,3.26
2019-04-30T04:24:00.211Z,3.26
2019-04-30T04:27:09.562Z,3.42
2019-04-30T04:30:15.383Z,2.53
2019-04-30T04:33:21.881Z,2.85
2019-04-30T04:36:30.269Z,2.35
2019-04-30T04:39:36.483Z,3.21
2019-04-30T04:42:42.940Z,2.92
2019-04-30T04:45:50.007Z,2.97
2019-04-30T04:48:59.437Z,2.78
2019-04-30T04:52:04.790Z,3.38
2019-04-30T04:55:12.996Z,2.87
2019-04-30T04:58:21.508Z,3.32
2019-04-30T05:01:28.870Z,2.80
2019-04-30T05:04:35.572Z,2.78
2019-04-30T05:07:41.957Z,3.45
2019-04-30T05:10:49.492Z,3.68
2019-04-30T05:13:56.067Z,3.74
2019-04-30T05:17:02.454Z,3.81
2019-04-30T05:20:11.154Z,4.38
2019-04-30T05:23:19.557Z,4.69
2019-04-30T05:26:25.917Z,4.15
2019-04-30T05:29:32.360Z,4.00
2019-04-30T05:32:39.173Z,3.93
2019-04-30T05:35:46.887Z,4.07
2019-04-30T05:38:53.280Z,4.04
2019-04-30T05:41:59.688Z,3.85
2019-04-30T05:45:09.325Z,3.99
2019-04-30T05:48:16.277Z,4.18
2019-04-30T05:51:22.674Z,4.23
2019-04-30T05:54:29.280Z,4.23
2019-04-30T05:57:35.779Z,4.28
2019-04-30T06:00:42.171Z,4.35
2019-04-30T06:03:48.577Z,4.33
2019-04-30T06:06:55.218Z,4.55
2019-04-30T06:10:10.274Z,4.40
2019-04-30T06:13:20.706Z,4.37
2019-04-30T06:16:29.692Z,4.29
2019-04-30T06:19:36.199Z,4.62
2019-04-30T06:22:42.739Z,4.65
2019-04-30T06:25:59.917Z,4.47
2019-04-30T06:29:00.055Z,4.57
2019-04-30T06:32:08.530Z,4.79
2019-04-30T06:35:15.155Z,4.43
2019-04-30T06:38:21.704Z,4.82
2019-04-30T06:41:29.576Z,4.75
2019-04-30T06:44:39.322Z,4.94
2019-04-30T06:47:46.121Z,4.85
2019-04-30T06:50:52.508Z,4.81
2019-04-30T06:53:58.919Z,4.78
2019-04-30T06:57:05.486Z,4.94
2019-04-30T07:00:13.186Z,5.11
2019-04-30T07:03:20.004Z,4.84
2019-04-30T07:06:29.669Z,5.01
2019-04-30T07:09:54.581Z,5.25
2019-04-30T07:12:59.168Z,5.22
2019-04-30T07:16:05.615Z,5.28
2019-04-30T07:19:12.151Z,5.18
2019-04-30T07:22:20.710Z,5.50
2019-04-30T07:25:26.662Z,5.56
2019-04-30T07:28:43.047Z,5.68
2019-04-30T07:31:41.417Z,5.63
2019-04-30T07:34:49.551Z,5.83
2019-04-30T07:38:00.665Z,6.10
2019-04-30T07:41:04.356Z,6.42
2019-04-30T07:44:29.459Z,6.21
2019-04-30T07:47:20.179Z,6.21
2019-04-30T07:50:27.176Z,6.50
2019-04-30T07:53:34.494Z,6.29
2019-04-30T07:56:41.898Z,6.67
2019-04-30T07:59:49.943Z,6.71
2019-04-30T08:03:06.348Z,6.71
2019-04-30T08:06:23.096Z,6.82
2019-04-30T08:09:38.635Z,6.90
2019-04-30T08:12:42.038Z,6.76
2019-04-30T08:15:46.155Z,7.16
2019-04-30T08:18:53.529Z,7.13
2019-04-30T08:21:59.934Z,6.82
2019-04-30T08:25:07.023Z,6.92
2019-04-30T08:28:13.491Z,7.00
2019-04-30T08:31:19.940Z,7.37
2019-04-30T08:34:26.392Z,7.49
2019-04-30T08:37:32.805Z,7.46
2019-04-30T08:40:47.239Z,7.47
2019-04-30T08:43:49.457Z,7.78
2019-04-30T08:46:55.508Z,8.20
2019-04-30T08:50:02.932Z,7.85
2019-04-30T08:53:10.931Z,7.60
2019-04-30T08:56:21.665Z,8.32
2019-04-30T08:59:26.274Z,8.11
2019-04-30T09:02:32.958Z,7.98
2019-04-30T09:06:01.410Z,8.49
2019-04-30T09:09:13.098Z,8.58
2019-04-30T09:12:19.755Z,8.69
2019-04-30T09:15:26.273Z,8.90
2019-04-30T09:18:32.693Z,8.30
2019-04-30T09:21:40.245Z,9.03
2019-04-30T09:24:46.764Z,8.98
2019-04-30T09:27:53.135Z,9.17
2019-04-30T09:30:59.985Z,9.04
2019-04-30T09:34:15.297Z,9.37
2019-04-30T09:37:14.630Z,9.40
2019-04-30T09:40:21.349Z,9.57
2019-04-30T09:43:28.625Z,9.16
2019-04-30T09:46:35.634Z,9.40
2019-04-30T09:49:42.123Z,9.41
2019-04-30T09:52:49.698Z,9.71
2019-04-30T09:55:56.474Z,9.54
2019-04-30T09:59:03.045Z,9.88
2019-04-30T10:02:10.747Z,9.92
2019-04-30T10:05:19.397Z,10.01
2019-04-30T10:08:26.534Z,10.05
2019-04-30T10:11:52.362Z,9.70
2019-04-30T10:14:59.268Z,10.51
2019-04-30T10:18:06.159Z,10.19
2019-04-30T10:21:12.790Z,9.86
2019-04-30T10:24:19.701Z,10.69
2019-04-30T10:27:29.153Z,10.76
2019-04-30T10:30:37.482Z,10.71
2019-04-30T10:33:44.003Z,10.84
2019-04-30T10:36:50.606Z,11.25
2019-04-30T10:39:57.256Z,11.11
2019-04-30T10:43:03.851Z,10.92
2019-04-30T10:46:11.865Z,10.93
2019-04-30T10:49:19.200Z,11.39
2019-04-30T10:52:26.358Z,10.69
2019-04-30T10:55:32.873Z,11.32
2019-04-30T10:58:39.433Z,10.73
2019-04-30T11:01:45.975Z,11.31
2019-04-30T11:04:52.526Z,11.25
2019-04-30T11:08:00.167Z,11.79
2019-04-30T11:11:06.916Z,11.35
2019-04-30T11:14:13.491Z,11.65
2019-04-30T11:17:20.113Z,11.78
2019-04-30T11:20:26.864Z,11.70
2019-04-30T11:23:33.730Z,12.10
2019-04-30T11:26:41.284Z,12.17
2019-04-30T11:29:49.519Z,11.85
2019-04-30T11:32:56.466Z,12.10
2019-04-30T11:36:05.082Z,11.82
2019-04-30T11:39:18.620Z,12.23
2019-04-30T11:42:25.145Z,12.12
2019-04-30T11:46:46.028Z,12.63
2019-04-30T11:49:52.660Z,11.97
2019-04-30T11:53:13.986Z,12.75
2019-04-30T11:56:08.489Z,12.98
2019-04-30T11:59:14.982Z,12.77
2019-04-30T12:02:29.294Z,12.48
2019-04-30T12:05:36.178Z,12.79
2019-04-30T12:09:01.566Z,13.13
2019-04-30T12:12:10.244Z,13.06
2019-04-30T12:15:16.856Z,13.18
2019-04-30T12:18:23.634Z,13.57
2019-04-30T12:21:30.109Z,13.38
2019-04-30T12:24:36.595Z,12.82
2019-04-30T12:27:43.515Z,12.95
2019-04-30T12:30:50.094Z,13.54
2019-04-30T12:33:56.474Z,13.30
2019-04-30T12:37:02.850Z,13.24
2019-04-30T12:40:25.567Z,13.58
2019-04-30T12:43:18.577Z,13.67
2019-04-30T12:46:25.142Z,13.31
2019-04-30T12:49:49.985Z,13.48
2019-04-30T12:53:04.144Z,13.44
2019-04-30T12:56:28.322Z,13.39
2019-04-30T12:59:34.831Z,13.33
2019-04-30T13:02:41.336Z,13.46
2019-04-30T13:05:50.063Z,13.76
2019-04-30T13:08:56.478Z,13.27
2019-04-30T13:12:03.679Z,13.40
2019-04-30T13:15:11.409Z,13.37
2019-04-30T13:18:19.470Z,13.47
2019-04-30T13:21:26.159Z,13.56
2019-04-30T13:24:32.705Z,13.82
2019-04-30T13:27:42.467Z,13.75
2019-04-30T13:30:49.447Z,13.89
2019-04-30T13:34:01.502Z,14.00
2019-04-30T13:37:09.283Z,14.16
2019-04-30T13:40:33.720Z,14.26
2019-04-30T13:44:00.985Z,13.85
2019-04-30T13:47:10.670Z,13.74
2019-04-30T13:50:15.944Z,13.90
2019-04-30T13:53:22.310Z,14.18
2019-04-30T13:56:29.113Z,13.63
2019-04-30T13:59:35.467Z,14.10
2019-04-30T14:02:46.051Z,14.06
2019-04-30T14:05:52.612Z,14.07
2019-04-30T14:09:00.719Z,13.82
2019-04-30T14:12:08.911Z,14.03
2019-04-30T14:15:16.439Z,13.70
2019-04-30T14:18:30.839Z,14.19
2019-04-30T14:21:35.246Z,14.23
2019-04-30T14:24:39.403Z,14.04
2019-04-30T14:27:52.287Z,13.92
2019-04-30T14:30:54.093Z,14.13
2019-04-30T14:34:00.663Z,14.27
2019-04-30T14:37:07.206Z,13.97
2019-04-30T14:40:15.413Z,14.07
2019-04-30T14:43:29.943Z,14.39
2019-04-30T14:47:14.321Z,14.24
2019-04-30T14:50:21.991Z,14.12
2019-04-30T14:53:49.916Z,14.24
2019-04-30T14:57:06.468Z,14.03
2019-04-30T15:00:31.983Z,14.14
2019-04-30T15:03:39.493Z,14.11
2019-04-30T15:06:46.331Z,14.21
2019-04-30T15:09:52.748Z,14.10
2019-04-30T15:13:00.188Z,13.96
2019-04-30T15:16:07.255Z,13.99
2019-04-30T15:19:13.615Z,14.13
2019-04-30T15:22:20.085Z,14.36
2019-04-30T15:25:34.319Z,14.08
2019-04-30T15:28:34.581Z,14.35
2019-04-30T15:31:42.598Z,14.18
2019-04-30T15:34:49.261Z,14.35
2019-04-30T15:37:59.027Z,14.18
2019-04-30T15:41:06.076Z,14.35
2019-04-30T15:44:12.873Z,14.43
2019-04-30T15:47:19.813Z,14.13
2019-04-30T15:50:26.426Z,14.23
2019-04-30T15:53:33.019Z,14.01
2019-04-30T15:56:40.860Z,14.20
2019-04-30T15:59:47.553Z,14.39
2019-04-30T16:03:00.269Z,14.21
2019-04-30T16:06:08.365Z,14.02
2019-04-30T16:09:22.715Z,14.25
2019-04-30T16:12:38.515Z,14.35
2019-04-30T16:15:46.258Z,13.96
2019-04-30T16:18:53.088Z,14.06
2019-04-30T16:22:02.520Z,13.87
2019-04-30T16:25:09.063Z,14.01
2019-04-30T16:28:15.708Z,14.00
2019-04-30T16:31:22.182Z,13.97
2019-04-30T16:34:30.454Z,13.81
2019-04-30T16:37:38.772Z,13.97
2019-04-30T16:40:45.280Z,13.91
2019-04-30T16:43:51.781Z,13.74
2019-04-30T16:46:59.644Z,13.49
2019-04-30T16:50:08.836Z,13.72
2019-04-30T16:53:15.166Z,13.73
2019-04-30T16:56:21.627Z,13.73
2019-04-30T16:59:34.636Z,13.58
2019-04-30T17:02:43.561Z,13.53
2019-04-30T17:05:55.970Z,13.58
2019-04-30T17:09:21.067Z,13.49
2019-04-30T17:12:35.115Z,13.30
2019-04-30T17:15:41.601Z,13.33
2019-04-30T17:18:49.908Z,12.84
2019-04-30T17:21:57.511Z,12.64
2019-04-30T17:25:04.112Z,12.65
2019-04-30T17:28:10.491Z,12.77
2019-04-30T17:31:16.972Z,11.95
2019-04-30T17:34:23.421Z,12.17
2019-04-30T17:37:31.518Z,12.07
2019-04-30T17:40:38.958Z,12.05
2019-04-30T17:43:45.475Z,11.83
2019-04-30T17:46:51.939Z,11.66
2019-04-30T17:49:58.901Z,11.52
2019-04-30T17:53:05.561Z,11.50
2019-04-30T17:56:11.953Z,11.54
2019-04-30T17:59:18.425Z,11.39
2019-04-30T18:02:26.902Z,11.19
2019-04-30T18:05:33.783Z,11.20
2019-04-30T18:08:40.326Z,11.11
2019-04-30T18:11:46.773Z,10.93
2019-04-30T18:14:53.612Z,10.88
2019-04-30T18:18:17.488Z,10.52
2019-04-30T18:21:31.642Z,10.59
2019-04-30T18:24:45.638Z,10.37
2019-04-30T18:27:55.539Z,10.45
2019-04-30T18:31:02.138Z,9.68
2019-04-30T18:34:09.448Z,9.96
2019-04-30T18:37:16.091Z,10.06
2019-04-30T18:40:22.520Z,10.13
2019-04-30T18:43:29.022Z,9.81
2019-04-30T18:46:35.576Z,9.78
2019-04-30T18:49:42.187Z,9.68
2019-04-30T18:52:50.724Z,9.63
2019-04-30T18:55:59.049Z,9.38
2019-04-30T18:59:05.481Z,9.39
2019-04-30T19:02:13.751Z,8.85
2019-04-30T19:05:26.688Z,8.90
2019-04-30T19:08:39.503Z,8.87
2019-04-30T19:11:52.594Z,8.95
2019-04-30T19:15:11.969Z,8.93
2019-04-30T19:18:28.376Z,8.69
2019-04-30T19:21:35.586Z,8.59
2019-04-30T19:24:53.413Z,8.82
2019-04-30T19:27:50.337Z,8.80
2019-04-30T19:30:58.855Z,8.54
2019-04-30T19:34:05.263Z,8.21
2019-04-30T19:37:12.388Z,8.08
2019-04-30T19:40:19.108Z,8.21
2019-04-30T19:43:25.542Z,8.11
2019-04-30T19:46:31.924Z,8.14
2019-04-30T19:49:40.418Z,6.54
2019-04-30T19:52:46.535Z,6.44
2019-04-30T19:55:56.086Z,7.14
2019-04-30T19:59:05.496Z,7.50
2019-04-30T20:02:10.814Z,7.65
2019-04-30T20:05:19.273Z,7.93
2019-04-30T20:08:25.569Z,7.44
2019-04-30T20:11:31.947Z,6.23
2019-04-30T20:14:39.105Z,6.35
2019-04-30T20:17:45.674Z,6.97
2019-04-30T20:20:54.105Z,7.18
2019-04-30T20:24:00.590Z,6.93
2019-04-30T20:27:09.944Z,7.16
2019-04-30T20:30:16.040Z,7.12
2019-04-30T20:33:22.961Z,6.65
2019-04-30T20:36:29.355Z,6.48
2019-04-30T20:39:49.451Z,6.61
2019-04-30T20:42:55.890Z,6.56
2019-04-30T20:46:02.307Z,5.61
2019-04-30T20:49:09.233Z,6.02
2019-04-30T20:52:15.691Z,5.18
2019-04-30T20:55:22.051Z,6.19
2019-04-30T20:58:28.522Z,6.01
2019-04-30T21:01:35.446Z,5.98
2019-04-30T21:04:42.081Z,6.36
2019-04-30T21:07:48.819Z,5.44
2019-04-30T21:10:55.177Z,5.85
2019-04-30T21:14:01.867Z,5.54
2019-04-30T21:17:08.508Z,6.07
2019-04-30T21:20:15.355Z,5.71
2019-04-30T21:23:21.769Z,5.24
2019-04-30T21:26:28.341Z,5.30
2019-04-30T21:29:34.724Z,4.95
2019-04-30T21:32:56.566Z,5.59
2019-04-30T21:36:08.975Z,5.27
2019-04-30T21:39:15.533Z,5.04
2019-04-30T21:42:22.144Z,5.28
2019-04-30T21:45:29.187Z,4.54
2019-04-30T21:48:38.468Z,4.88
2019-04-30T21:51:44.952Z,5.11
2019-04-30T21:54:51.465Z,5.43
2019-04-30T21:57:59.440Z,5.87
2019-04-30T22:01:20.225Z,5.30
2019-04-30T22:04:27.870Z,5.40
2019-04-30T22:07:34.442Z,5.41
2019-04-30T22:10:40.850Z,5.53
2019-04-30T22:13:49.062Z,5.63
2019-04-30T22:16:55.658Z,5.66
2019-04-30T22:20:02.042Z,5.66
2019-04-30T22:23:08.522Z,5.75
2019-04-30T22:26:14.987Z,5.88
2019-04-30T22:29:21.622Z,5.79
2019-04-30T22:32:28.100Z,5.74
2019-04-30T22:35:58.797Z,5.82
2019-04-30T22:39:35.099Z,5.71
2019-04-30T22:42:41.888Z,5.76
2019-04-30T22:45:53.482Z,5.78
2019-04-30T22:49:00.309Z,5.86
2019-04-30T22:52:06.708Z,5.41
2019-04-30T22:55:13.262Z,5.47
2019-04-30T22:58:19.639Z,5.58
2019-04-30T23:01:55.282Z,5.60
2019-04-30T23:05:02.371Z,5.00
2019-04-30T23:08:08.753Z,5.50
2019-04-30T23:11:15.219Z,5.25
2019-04-30T23:14:21.752Z,4.75
2019-04-30T23:17:28.245Z,5.47
2019-04-30T23:20:34.630Z,5.33
2019-04-30T23:23:41.373Z,5.40
2019-04-30T23:26:47.765Z,5.02
2019-04-30T23:30:03.133Z,4.32
2019-04-30T23:33:02.392Z,5.05
2019-04-30T23:36:08.795Z,5.22
2019-04-30T23:39:15.376Z,4.93
2019-04-30T23:42:21.842Z,5.23
2019-04-30T23:45:28.292Z,5.22
2019-04-30T23:48:34.713Z,5.05
2019-04-30T23:51:41.112Z,5.21
2019-04-30T23:54:47.575Z,4.85
2019-04-30T23:57:54.041Z,5.13
